sensor_id;sensor_type;location;lat;lon;timestamp;pressure;altitude;pressure_sealevel;temperature;humidity
19736;BME280;32064;49.310;8.646;2023-01-29T00:00:30;101840.34;;;4.84;57.83
19736;BME280;32064;49.310;8.646;2023-01-29T00:02:56;101838.47;;;4.90;58.14
19736;BME280;32064;49.310;8.646;2023-01-29T00:05:21;101829.66;;;4.96;56.99
19736;BME280;32064;49.310;8.646;2023-01-29T00:07:47;101831.34;;;4.97;57.61
19736;BME280;32064;49.310;8.646;2023-01-29T00:10:12;101825.53;;;4.86;59.29
19736;BME280;32064;49.310;8.646;2023-01-29T00:12:38;101830.81;;;4.83;58.32
19736;BME280;32064;49.310;8.646;2023-01-29T00:15:04;101828.31;;;4.78;57.66
19736;BME280;32064;49.310;8.646;2023-01-29T00:17:30;101835.25;;;4.78;57.87
19736;BME280;32064;49.310;8.646;2023-01-29T00:19:55;101836.94;;;4.82;58.70
19736;BME280;32064;49.310;8.646;2023-01-29T00:22:20;101839.47;;;4.85;58.24
19736;BME280;32064;49.310;8.646;2023-01-29T00:24:46;101845.69;;;4.78;57.71
19736;BME280;32064;49.310;8.646;2023-01-29T00:27:11;101829.38;;;4.69;58.59
19736;BME280;32064;49.310;8.646;2023-01-29T00:29:37;101828.34;;;4.77;58.24
19736;BME280;32064;49.310;8.646;2023-01-29T00:32:02;101821.28;;;4.82;57.30
19736;BME280;32064;49.310;8.646;2023-01-29T00:34:27;101832.50;;;4.85;57.96
19736;BME280;32064;49.310;8.646;2023-01-29T00:36:56;101822.00;;;4.88;57.87
19736;BME280;32064;49.310;8.646;2023-01-29T00:39:30;101817.63;;;4.89;56.58
19736;BME280;32064;49.310;8.646;2023-01-29T00:42:04;101823.75;;;4.88;57.75
19736;BME280;32064;49.310;8.646;2023-01-29T00:44:48;101826.44;;;4.85;56.84
19736;BME280;32064;49.310;8.646;2023-01-29T00:47:23;101825.53;;;4.86;57.17
19736;BME280;32064;49.310;8.646;2023-01-29T00:49:59;101830.81;;;4.83;58.40
19736;BME280;32064;49.310;8.646;2023-01-29T00:52:26;101836.03;;;4.83;58.26
19736;BME280;32064;49.310;8.646;2023-01-29T00:54:53;101833.47;;;4.81;57.19
19736;BME280;32064;49.310;8.646;2023-01-29T00:57:19;101828.28;;;4.80;57.16
19736;BME280;32064;49.310;8.646;2023-01-29T00:59:44;101820.53;;;4.77;56.71
19736;BME280;32064;49.310;8.646;2023-01-29T01:02:09;101824.84;;;4.78;57.34
19736;BME280;32064;49.310;8.646;2023-01-29T01:04:53;101831.88;;;4.74;56.80
19736;BME280;32064;49.310;8.646;2023-01-29T01:07:19;101828.44;;;4.73;56.95
19736;BME280;32064;49.310;8.646;2023-01-29T01:09:45;101832.81;;;4.71;57.83
19736;BME280;32064;49.310;8.646;2023-01-29T01:12:29;101831.19;;;4.67;58.20
19736;BME280;32064;49.310;8.646;2023-01-29T01:14:55;101846.81;;;4.67;58.29
19736;BME280;32064;49.310;8.646;2023-01-29T01:17:20;101851.19;;;4.65;58.01
19736;BME280;32064;49.310;8.646;2023-01-29T01:19:46;101843.31;;;4.68;57.58
19736;BME280;32064;49.310;8.646;2023-01-29T01:22:15;101850.22;;;4.69;58.44
19736;BME280;32064;49.310;8.646;2023-01-29T01:24:40;101851.03;;;4.73;57.99
19736;BME280;32064;49.310;8.646;2023-01-29T01:27:06;101845.81;;;4.73;57.83
19736;BME280;32064;49.310;8.646;2023-01-29T01:29:31;101841.41;;;4.75;58.36
19736;BME280;32064;49.310;8.646;2023-01-29T01:31:57;101842.31;;;4.72;57.10
19736;BME280;32064;49.310;8.646;2023-01-29T01:34:23;101835.38;;;4.73;57.38
19736;BME280;32064;49.310;8.646;2023-01-29T01:36:52;101833.84;;;4.64;58.26
19736;BME280;32064;49.310;8.646;2023-01-29T01:39:18;101834.94;;;4.53;58.12
19736;BME280;32064;49.310;8.646;2023-01-29T01:41:44;101835.78;;;4.55;58.44
19736;BME280;32064;49.310;8.646;2023-01-29T01:44:50;101836.84;;;4.44;58.43
19736;BME280;32064;49.310;8.646;2023-01-29T01:47:17;101838.38;;;4.55;58.61
19736;BME280;32064;49.310;8.646;2023-01-29T01:49:45;101835.09;;;4.46;58.31
19736;BME280;32064;49.310;8.646;2023-01-29T01:52:12;101831.66;;;4.44;58.38
19736;BME280;32064;49.310;8.646;2023-01-29T01:54:39;101828.88;;;4.54;57.94
19736;BME280;32064;49.310;8.646;2023-01-29T01:57:09;101835.84;;;4.52;58.66
19736;BME280;32064;49.310;8.646;2023-01-29T01:59:42;101821.44;;;4.35;58.53
19736;BME280;32064;49.310;8.646;2023-01-29T02:02:10;101837.97;;;4.33;59.16
19736;BME280;32064;49.310;8.646;2023-01-29T02:04:54;101833.38;;;4.45;58.24
19736;BME280;32064;49.310;8.646;2023-01-29T02:07:42;101832.41;;;4.51;58.58
19736;BME280;32064;49.310;8.646;2023-01-29T02:10:31;101830.72;;;4.48;57.66
19736;BME280;32064;49.310;8.646;2023-01-29T02:13:02;101833.50;;;4.39;58.37
19736;BME280;32064;49.310;8.646;2023-01-29T02:15:28;101835.41;;;4.31;58.45
19736;BME280;32064;49.310;8.646;2023-01-29T02:17:53;101830.16;;;4.34;58.40
19736;BME280;32064;49.310;8.646;2023-01-29T02:20:23;101839.44;;;4.46;58.07
19736;BME280;32064;49.310;8.646;2023-01-29T02:28:30;101834.22;;;4.47;58.41
19736;BME280;32064;49.310;8.646;2023-01-29T02:31:30;101828.31;;;4.38;57.41
19736;BME280;32064;49.310;8.646;2023-01-29T02:40:42;101817.13;;;4.34;58.11
19736;BME280;32064;49.310;8.646;2023-01-29T02:43:50;101808.63;;;4.24;57.73
19736;BME280;32064;49.310;8.646;2023-01-29T02:46:22;101804.31;;;4.25;58.38
19736;BME280;32064;49.310;8.646;2023-01-29T02:54:20;101803.69;;;4.12;58.99
19736;BME280;32064;49.310;8.646;2023-01-29T02:57:07;101800.94;;;4.18;58.67
19736;BME280;32064;49.310;8.646;2023-01-29T02:59:41;101800.72;;;4.31;58.88
19736;BME280;32064;49.310;8.646;2023-01-29T03:02:15;101794.59;;;4.33;59.15
19736;BME280;32064;49.310;8.646;2023-01-29T03:04:48;101805.72;;;4.38;57.36
19736;BME280;32064;49.310;8.646;2023-01-29T03:07:27;101798.91;;;4.33;57.83
19736;BME280;32064;49.310;8.646;2023-01-29T03:10:25;101796.56;;;4.20;58.21
19736;BME280;32064;49.310;8.646;2023-01-29T03:13:27;101797.50;;;4.18;58.19
19736;BME280;32064;49.310;8.646;2023-01-29T03:15:59;101792.09;;;4.27;58.86
19736;BME280;32064;49.310;8.646;2023-01-29T03:18:30;101797.19;;;4.32;57.97
19736;BME280;32064;49.310;8.646;2023-01-29T03:21:02;101800.63;;;4.34;58.40
19736;BME280;32064;49.310;8.646;2023-01-29T03:23:49;101796.31;;;4.33;59.15
19736;BME280;32064;49.310;8.646;2023-01-29T03:26:33;101803.47;;;4.23;58.96
19736;BME280;32064;49.310;8.646;2023-01-29T03:29:17;101804.31;;;4.25;58.19
19736;BME280;32064;49.310;8.646;2023-01-29T03:32:02;101812.91;;;4.28;58.83
19736;BME280;32064;49.310;8.646;2023-01-29T03:34:43;101810.25;;;4.30;58.85
19736;BME280;32064;49.310;8.646;2023-01-29T03:37:19;101816.34;;;4.29;57.72
19736;BME280;32064;49.310;8.646;2023-01-29T03:39:46;101817.13;;;4.33;59.16
19736;BME280;32064;49.310;8.646;2023-01-29T03:42:20;101824.94;;;4.33;59.43
19736;BME280;32064;49.310;8.646;2023-01-29T03:47:38;101822.28;;;4.36;58.67
19736;BME280;32064;49.310;8.646;2023-01-29T03:50:14;101818.81;;;4.35;58.57
19736;BME280;32064;49.310;8.646;2023-01-29T03:52:53;101823.31;;;4.28;58.40
19736;BME280;32064;49.310;8.646;2023-01-29T03:58:03;101825.09;;;4.26;58.82
19736;BME280;32064;49.310;8.646;2023-01-29T04:00:44;101836.34;;;4.28;57.79
19736;BME280;32064;49.310;8.646;2023-01-29T04:03:33;101828.66;;;4.22;58.79
19736;BME280;32064;49.310;8.646;2023-01-29T04:06:08;101818.31;;;4.19;59.28
19736;BME280;32064;49.310;8.646;2023-01-29T04:09:02;101822.59;;;4.22;59.59
19736;BME280;32064;49.310;8.646;2023-01-29T04:11:28;101816.56;;;4.18;59.38
19736;BME280;32064;49.310;8.646;2023-01-29T04:13:56;101816.50;;;4.23;58.39
19736;BME280;32064;49.310;8.646;2023-01-29T04:16:33;101817.34;;;4.23;58.90
19736;BME280;32064;49.310;8.646;2023-01-29T04:19:01;101829.44;;;4.27;59.50
19736;BME280;32064;49.310;8.646;2023-01-29T04:21:27;101832.03;;;4.27;58.73
19736;BME280;32064;49.310;8.646;2023-01-29T04:23:52;101835.50;;;4.26;58.26
19736;BME280;32064;49.310;8.646;2023-01-29T04:31:40;101833.19;;;4.13;58.99
19736;BME280;32064;49.310;8.646;2023-01-29T04:34:27;101838.31;;;4.17;59.51
19736;BME280;32064;49.310;8.646;2023-01-29T04:37:11;101831.22;;;4.24;59.61
19736;BME280;32064;49.310;8.646;2023-01-29T04:40:20;101836.59;;;4.16;59.65
19736;BME280;32064;49.310;8.646;2023-01-29T04:46:09;101827.31;;;4.01;58.95
19736;BME280;32064;49.310;8.646;2023-01-29T04:48:59;101827.44;;;3.95;59.49
19736;BME280;32064;49.310;8.646;2023-01-29T04:51:35;101826.41;;;4.05;59.60
19736;BME280;32064;49.310;8.646;2023-01-29T04:54:18;101835.78;;;4.13;59.89
19736;BME280;32064;49.310;8.646;2023-01-29T04:57:10;101840.97;;;4.14;59.55
19736;BME280;32064;49.310;8.646;2023-01-29T04:59:44;101833.94;;;4.19;59.26
19736;BME280;32064;49.310;8.646;2023-01-29T05:02:12;101825.22;;;4.20;59.44
19736;BME280;32064;49.310;8.646;2023-01-29T05:04:39;101823.69;;;4.10;59.90
19736;BME280;32064;49.310;8.646;2023-01-29T05:07:10;101809.97;;;4.02;59.16
19736;BME280;32064;49.310;8.646;2023-01-29T05:09:38;101807.53;;;3.93;58.80
19736;BME280;32064;49.310;8.646;2023-01-29T05:12:08;101797.13;;;3.94;59.65
19736;BME280;32064;49.310;8.646;2023-01-29T05:14:36;101785.03;;;3.90;59.47
19736;BME280;32064;49.310;8.646;2023-01-29T05:17:07;101779.81;;;3.92;59.57
19736;BME280;32064;49.310;8.646;2023-01-29T05:19:34;101798.72;;;4.00;59.95
19736;BME280;32064;49.310;8.646;2023-01-29T05:21:59;101802.19;;;4.00;58.90
19736;BME280;32064;49.310;8.646;2023-01-29T05:24:28;101795.28;;;3.99;58.59
19736;BME280;32064;49.310;8.646;2023-01-29T05:26:53;101791.84;;;3.97;60.33
19736;BME280;32064;49.310;8.646;2023-01-29T05:29:47;101795.53;;;3.86;60.08
19736;BME280;32064;49.310;8.646;2023-01-29T05:32:13;101800.56;;;3.93;59.54
19736;BME280;32064;49.310;8.646;2023-01-29T05:34:39;101802.31;;;3.94;59.79
19736;BME280;32064;49.310;8.646;2023-01-29T05:37:05;101799.00;;;3.86;60.28
19736;BME280;32064;49.310;8.646;2023-01-29T05:39:30;101805.13;;;3.83;60.93
19736;BME280;32064;49.310;8.646;2023-01-29T05:41:56;101808.50;;;3.87;60.51
19736;BME280;32064;49.310;8.646;2023-01-29T05:44:21;101813.72;;;3.89;60.21
19736;BME280;32064;49.310;8.646;2023-01-29T05:46:46;101814.53;;;3.91;60.76
19736;BME280;32064;49.310;8.646;2023-01-29T05:49:12;101818.00;;;3.90;60.98
19736;BME280;32064;49.310;8.646;2023-01-29T05:51:37;101824.94;;;3.91;60.68
19736;BME280;32064;49.310;8.646;2023-01-29T05:54:03;101817.09;;;3.92;61.27
19736;BME280;32064;49.310;8.646;2023-01-29T05:56:29;101824.00;;;3.95;60.37
19736;BME280;32064;49.310;8.646;2023-01-29T05:58:55;101828.28;;;3.97;59.80
19736;BME280;32064;49.310;8.646;2023-01-29T06:01:24;101816.97;;;3.98;60.98
19736;BME280;32064;49.310;8.646;2023-01-29T06:03:49;101820.47;;;3.97;59.59
19736;BME280;32064;49.310;8.646;2023-01-29T06:06:15;101830.00;;;3.98;59.87
19736;BME280;32064;49.310;8.646;2023-01-29T06:08:41;101823.06;;;3.97;60.64
19736;BME280;32064;49.310;8.646;2023-01-29T06:11:08;101814.56;;;3.88;60.13
19736;BME280;32064;49.310;8.646;2023-01-29T06:13:34;101812.22;;;3.75;60.65
19736;BME280;32064;49.310;8.646;2023-01-29T06:16:00;101806.03;;;3.82;61.06
19736;BME280;32064;49.310;8.646;2023-01-29T06:18:28;101804.16;;;3.88;60.22
19736;BME280;32064;49.310;8.646;2023-01-29T06:20:53;101808.44;;;3.92;61.00
19736;BME280;32064;49.310;8.646;2023-01-29T06:23:18;101804.06;;;3.94;60.63
19736;BME280;32064;49.310;8.646;2023-01-29T06:25:44;101795.50;;;3.87;60.65
19736;BME280;32064;49.310;8.646;2023-01-29T06:28:09;101812.81;;;3.90;59.93
19736;BME280;32064;49.310;8.646;2023-01-29T06:30:35;101815.66;;;3.76;60.18
19736;BME280;32064;49.310;8.646;2023-01-29T06:33:00;101806.47;;;3.56;60.64
19736;BME280;32064;49.310;8.646;2023-01-29T06:35:26;101814.28;;;3.58;61.44
19736;BME280;32064;49.310;8.646;2023-01-29T06:37:52;101818.56;;;3.60;60.88
19736;BME280;32064;49.310;8.646;2023-01-29T06:40:17;101830.66;;;3.63;61.56
19736;BME280;32064;49.310;8.646;2023-01-29T06:42:43;101831.59;;;3.59;61.93
19736;BME280;32064;49.310;8.646;2023-01-29T06:45:09;101831.47;;;3.65;61.59
19736;BME280;32064;49.310;8.646;2023-01-29T06:47:34;101835.69;;;3.74;61.36
19736;BME280;32064;49.310;8.646;2023-01-29T06:50:00;101835.56;;;3.78;60.41
19736;BME280;32064;49.310;8.646;2023-01-29T06:52:25;101839.03;;;3.79;60.90
19736;BME280;32064;49.310;8.646;2023-01-29T06:54:53;101828.59;;;3.80;60.83
19736;BME280;32064;49.310;8.646;2023-01-29T06:57:19;101827.88;;;3.72;61.00
19736;BME280;32064;49.310;8.646;2023-01-29T06:59:44;101821.22;;;3.57;61.14
19736;BME280;32064;49.310;8.646;2023-01-29T07:02:10;101820.38;;;3.55;61.61
19736;BME280;32064;49.310;8.646;2023-01-29T07:04:35;101814.34;;;3.53;60.81
19736;BME280;32064;49.310;8.646;2023-01-29T07:07:02;101814.34;;;3.53;61.83
19736;BME280;32064;49.310;8.646;2023-01-29T07:09:27;101811.81;;;3.50;61.41
19736;BME280;32064;49.310;8.646;2023-01-29T07:11:53;101807.31;;;3.60;60.69
19736;BME280;32064;49.310;8.646;2023-01-29T07:14:18;101803.69;;;3.67;60.49
19736;BME280;32064;49.310;8.646;2023-01-29T07:16:43;101805.38;;;3.71;59.39
19736;BME280;32064;49.310;8.646;2023-01-29T07:19:09;101807.84;;;3.76;60.42
19736;BME280;32064;49.310;8.646;2023-01-29T07:21:35;101816.63;;;3.72;59.90
19736;BME280;32064;49.310;8.646;2023-01-29T07:24:01;101831.47;;;3.65;61.20
19736;BME280;32064;49.310;8.646;2023-01-29T07:26:27;101836.69;;;3.65;61.48
19736;BME280;32064;49.310;8.646;2023-01-29T07:28:53;101831.44;;;3.68;60.73
19736;BME280;32064;49.310;8.646;2023-01-29T07:31:18;101840.88;;;3.74;60.80
19736;BME280;32064;49.310;8.646;2023-01-29T07:33:44;101834.78;;;3.75;59.81
19736;BME280;32064;49.310;8.646;2023-01-29T07:36:10;101832.06;;;3.81;61.08
19736;BME280;32064;49.310;8.646;2023-01-29T07:38:36;101831.09;;;3.87;59.83
19736;BME280;32064;49.310;8.646;2023-01-29T07:41:02;101833.81;;;3.80;61.02
19736;BME280;32064;49.310;8.646;2023-01-29T07:43:27;101840.84;;;3.75;61.00
19736;BME280;32064;49.310;8.646;2023-01-29T07:45:53;101848.69;;;3.74;60.26
19736;BME280;32064;49.310;8.646;2023-01-29T07:48:18;101854.69;;;3.77;60.44
19736;BME280;32064;49.310;8.646;2023-01-29T07:50:44;101846.03;;;3.75;60.17
19736;BME280;32064;49.310;8.646;2023-01-29T07:53:13;101846.13;;;3.71;59.99
19736;BME280;32064;49.310;8.646;2023-01-29T07:55:40;101844.34;;;3.73;61.29
19736;BME280;32064;49.310;8.646;2023-01-29T07:58:07;101846.03;;;3.77;60.32
19736;BME280;32064;49.310;8.646;2023-01-29T08:00:36;101842.47;;;3.82;60.47
19736;BME280;32064;49.310;8.646;2023-01-29T08:03:03;101848.41;;;3.89;59.79
19736;BME280;32064;49.310;8.646;2023-01-29T08:05:29;101857.75;;;3.99;59.98
19736;BME280;32064;49.310;8.646;2023-01-29T08:07:57;101865.44;;;4.05;60.68
19736;BME280;32064;49.310;8.646;2023-01-29T08:10:23;101858.50;;;4.04;60.10
19736;BME280;32064;49.310;8.646;2023-01-29T08:12:59;101864.78;;;3.94;60.02
19736;BME280;32064;49.310;8.646;2023-01-29T08:15:26;101861.22;;;3.98;61.22
19736;BME280;32064;49.310;8.646;2023-01-29T08:17:52;101864.47;;;4.10;59.68
19736;BME280;32064;49.310;8.646;2023-01-29T08:20:18;101873.88;;;4.18;59.77
19736;BME280;32064;49.310;8.646;2023-01-29T08:22:44;101875.69;;;4.15;61.06
19736;BME280;32064;49.310;8.646;2023-01-29T08:25:10;101878.91;;;4.27;59.60
19736;BME280;32064;49.310;8.646;2023-01-29T08:27:36;101873.72;;;4.27;60.20
19736;BME280;32064;49.310;8.646;2023-01-29T08:30:05;101871.97;;;4.26;60.09
19736;BME280;32064;49.310;8.646;2023-01-29T08:32:34;101877.03;;;4.34;60.33
19736;BME280;32064;49.310;8.646;2023-01-29T08:34:59;101875.09;;;4.44;60.08
19736;BME280;32064;49.310;8.646;2023-01-29T08:37:24;101864.56;;;4.48;61.44
19736;BME280;32064;49.310;8.646;2023-01-29T08:39:50;101866.91;;;4.62;59.79
19736;BME280;32064;49.310;8.646;2023-01-29T08:42:15;101862.25;;;4.75;59.28
19736;BME280;32064;49.310;8.646;2023-01-29T08:44:41;101862.94;;;4.83;59.36
19736;BME280;32064;49.310;8.646;2023-01-29T08:47:06;101861.84;;;4.93;61.11
19736;BME280;32064;49.310;8.646;2023-01-29T08:49:31;101858.19;;;5.01;59.95
19736;BME280;32064;49.310;8.646;2023-01-29T08:51:57;101864.00;;;5.13;60.04
19736;BME280;32064;49.310;8.646;2023-01-29T08:54:23;101878.94;;;5.43;59.17
19736;BME280;32064;49.310;8.646;2023-01-29T08:56:48;101875.31;;;5.48;58.36
19736;BME280;32064;49.310;8.646;2023-01-29T08:59:14;101884.75;;;5.54;58.44
19736;BME280;32064;49.310;8.646;2023-01-29T09:01:40;101901.13;;;5.60;56.63
19736;BME280;32064;49.310;8.646;2023-01-29T09:04:05;101895.13;;;5.57;57.33
19736;BME280;32064;49.310;8.646;2023-01-29T09:06:31;101897.88;;;5.51;58.54
19736;BME280;32064;49.310;8.646;2023-01-29T09:08:56;101898.78;;;5.50;58.13
19736;BME280;32064;49.310;8.646;2023-01-29T09:11:21;101879.63;;;5.51;57.51
19736;BME280;32064;49.310;8.646;2023-01-29T09:13:47;101867.25;;;5.57;56.66
19736;BME280;32064;49.310;8.646;2023-01-29T09:16:15;101855.00;;;5.61;57.84
19736;BME280;32064;49.310;8.646;2023-01-29T09:18:40;101843.47;;;5.70;57.98
19736;BME280;32064;49.310;8.646;2023-01-29T09:21:09;101824.09;;;5.78;56.91
19736;BME280;32064;49.310;8.646;2023-01-29T09:23:34;101810.81;;;5.86;56.12
19736;BME280;32064;49.310;8.646;2023-01-29T09:25:59;101806.22;;;5.96;55.89
19736;BME280;32064;49.310;8.646;2023-01-29T09:28:25;101803.31;;;6.06;56.84
19736;BME280;32064;49.310;8.646;2023-01-29T09:30:50;101815.03;;;5.92;55.29
19736;BME280;32064;49.310;8.646;2023-01-29T09:33:16;101815.25;;;6.15;54.22
19736;BME280;32064;49.310;8.646;2023-01-29T09:35:43;101814.78;;;6.32;55.91
19736;BME280;32064;49.310;8.646;2023-01-29T09:38:09;101813.56;;;6.42;54.91
19736;BME280;32064;49.310;8.646;2023-01-29T09:43:26;101830.69;;;7.35;53.95
19736;BME280;32064;49.310;8.646;2023-01-29T09:46:02;101827.84;;;7.68;52.68
19736;BME280;32064;49.310;8.646;2023-01-29T09:48:31;101824.44;;;7.90;52.46
19736;BME280;32064;49.310;8.646;2023-01-29T09:50:59;101820.97;;;7.89;52.78
19736;BME280;32064;49.310;8.646;2023-01-29T09:53:38;101826.78;;;7.74;52.14
19736;BME280;32064;49.310;8.646;2023-01-29T09:56:10;101847.47;;;7.81;52.42
19736;BME280;32064;49.310;8.646;2023-01-29T09:58:39;101843.22;;;7.77;51.71
19736;BME280;32064;49.310;8.646;2023-01-29T10:01:20;101846.28;;;7.90;51.18
19736;BME280;32064;49.310;8.646;2023-01-29T10:06:48;101847.84;;;8.44;50.40
19736;BME280;32064;49.310;8.646;2023-01-29T10:12:14;101846.06;;;8.20;51.06
19736;BME280;32064;49.310;8.646;2023-01-29T10:20:27;101866.53;;;7.07;50.62
19736;BME280;32064;49.310;8.646;2023-01-29T10:23:26;101862.06;;;6.82;51.23
19736;BME280;32064;49.310;8.646;2023-01-29T10:25:53;101862.59;;;6.65;52.17
19736;BME280;32064;49.310;8.646;2023-01-29T10:28:37;101862.38;;;6.42;51.28
19736;BME280;32064;49.310;8.646;2023-01-29T10:31:09;101864.06;;;6.44;51.64
19736;BME280;32064;49.310;8.646;2023-01-29T10:33:42;101864.88;;;6.46;53.02
19736;BME280;32064;49.310;8.646;2023-01-29T10:36:15;101863.94;;;6.49;51.32
19736;BME280;32064;49.310;8.646;2023-01-29T10:38:46;101849.94;;;6.50;51.57
19736;BME280;32064;49.310;8.646;2023-01-29T10:52:31;101819.19;;;6.60;52.06
19736;BME280;32064;49.310;8.646;2023-01-29T10:55:04;101826.97;;;6.61;51.42
19736;BME280;32064;49.310;8.646;2023-01-29T10:57:59;101828.41;;;6.71;51.83
19736;BME280;32064;49.310;8.646;2023-01-29T11:00:34;101829.19;;;6.73;51.40
19736;BME280;32064;49.310;8.646;2023-01-29T11:03:12;101825.91;;;6.67;51.78
19736;BME280;32064;49.310;8.646;2023-01-29T11:08:27;101804.53;;;6.82;52.64
19736;BME280;32064;49.310;8.646;2023-01-29T11:11:06;101801.75;;;6.87;50.69
19736;BME280;32064;49.310;8.646;2023-01-29T11:13:41;101800.47;;;7.00;51.88
19736;BME280;32064;49.310;8.646;2023-01-29T11:16:09;101798.50;;;7.07;51.95
19736;BME280;32064;49.310;8.646;2023-01-29T11:18:58;101801.00;;;7.10;51.79
19736;BME280;32064;49.310;8.646;2023-01-29T11:21:25;101795.53;;;7.17;50.24
19736;BME280;32064;49.310;8.646;2023-01-29T11:24:15;101785.88;;;7.19;50.53
19736;BME280;32064;49.310;8.646;2023-01-29T11:26:45;101779.00;;;7.15;51.77
19736;BME280;32064;49.310;8.646;2023-01-29T11:29:28;101776.56;;;7.11;50.41
19736;BME280;32064;49.310;8.646;2023-01-29T11:31:57;101767.91;;;7.09;51.51
19736;BME280;32064;49.310;8.646;2023-01-29T11:34:24;101762.28;;;6.94;51.93
19736;BME280;32064;49.310;8.646;2023-01-29T11:37:00;101764.31;;;6.85;52.28
19736;BME280;32064;49.310;8.646;2023-01-29T11:39:27;101769.66;;;6.82;51.49
19736;BME280;32064;49.310;8.646;2023-01-29T11:44:33;101761.97;;;7.04;51.92
19736;BME280;32064;49.310;8.646;2023-01-29T11:47:27;101751.59;;;7.01;50.43
19736;BME280;32064;49.310;8.646;2023-01-29T11:50:00;101750.50;;;7.08;51.52
19736;BME280;32064;49.310;8.646;2023-01-29T11:52:38;101739.38;;;7.01;51.85
19736;BME280;32064;49.310;8.646;2023-01-29T11:55:32;101738.03;;;6.89;52.02
19736;BME280;32064;49.310;8.646;2023-01-29T11:58:05;101727.66;;;6.86;51.16
19736;BME280;32064;49.310;8.646;2023-01-29T12:00:34;101721.16;;;6.98;51.72
19736;BME280;32064;49.310;8.646;2023-01-29T12:03:14;101710.28;;;6.85;50.69
19736;BME280;32064;49.310;8.646;2023-01-29T12:05:51;101705.22;;;7.06;50.58
19736;BME280;32064;49.310;8.646;2023-01-29T12:08:18;101697.38;;;6.79;51.38
19736;BME280;32064;49.310;8.646;2023-01-29T12:10:43;101694.91;;;7.01;50.19
19736;BME280;32064;49.310;8.646;2023-01-29T12:15:41;101686.66;;;6.87;51.20
19736;BME280;32064;49.310;8.646;2023-01-29T12:18:34;101682.66;;;6.77;50.60
19736;BME280;32064;49.310;8.646;2023-01-29T12:23:46;101681.91;;;6.73;50.69
19736;BME280;32064;49.310;8.646;2023-01-29T12:26:28;101675.28;;;6.88;50.92
19736;BME280;32064;49.310;8.646;2023-01-29T12:34:54;101655.38;;;6.84;52.33
19736;BME280;32064;49.310;8.646;2023-01-29T12:39:59;101654.00;;;6.98;51.27
19736;BME280;32064;49.310;8.646;2023-01-29T12:42:26;101655.06;;;6.93;52.19
19736;BME280;32064;49.310;8.646;2023-01-29T12:44:54;101644.13;;;7.07;52.08
19736;BME280;32064;49.310;8.646;2023-01-29T12:49:54;101636.38;;;7.29;51.72
19736;BME280;32064;49.310;8.646;2023-01-29T12:52:32;101637.22;;;7.29;51.47
19736;BME280;32064;49.310;8.646;2023-01-29T12:55:09;101635.63;;;7.25;50.74
19736;BME280;32064;49.310;8.646;2023-01-29T12:57:49;101630.44;;;7.24;51.20
19736;BME280;32064;49.310;8.646;2023-01-29T13:00:21;101624.81;;;7.34;51.48
19736;BME280;32064;49.310;8.646;2023-01-29T13:02:55;101624.69;;;7.37;51.88
19736;BME280;32064;49.310;8.646;2023-01-29T13:05:40;101621.25;;;7.37;50.74
19736;BME280;32064;49.310;8.646;2023-01-29T13:08:20;101626.50;;;7.35;51.07
19736;BME280;32064;49.310;8.646;2023-01-29T13:10:50;101622.19;;;7.34;51.37
19736;BME280;32064;49.310;8.646;2023-01-29T13:13:30;101617.88;;;7.33;51.50
19736;BME280;32064;49.310;8.646;2023-01-29T13:15:58;101620.31;;;7.38;51.30
19736;BME280;32064;49.310;8.646;2023-01-29T13:18:46;101613.03;;;7.23;50.39
19736;BME280;32064;49.310;8.646;2023-01-29T13:21:20;101616.72;;;7.17;51.82
19736;BME280;32064;49.310;8.646;2023-01-29T13:23:49;101601.72;;;7.22;51.62
19736;BME280;32064;49.310;8.646;2023-01-29T13:26:17;101616.63;;;7.20;50.81
19736;BME280;32064;49.310;8.646;2023-01-29T13:28:44;101614.72;;;7.24;50.79
19736;BME280;32064;49.310;8.646;2023-01-29T13:31:12;101606.69;;;7.05;50.64
19736;BME280;32064;49.310;8.646;2023-01-29T13:33:42;101600.84;;;6.98;51.43
19736;BME280;32064;49.310;8.646;2023-01-29T13:36:17;101603.78;;;6.89;52.04
19736;BME280;32064;49.310;8.646;2023-01-29T13:38:45;101605.78;;;6.82;51.77
19736;BME280;32064;49.310;8.646;2023-01-29T13:41:10;101611.16;;;6.78;52.10
19736;BME280;32064;49.310;8.646;2023-01-29T13:43:39;101601.66;;;6.75;52.34
19736;BME280;32064;49.310;8.646;2023-01-29T13:46:11;101595.88;;;6.65;51.86
19736;BME280;32064;49.310;8.646;2023-01-29T13:48:42;101583.34;;;6.75;51.21
19736;BME280;32064;49.310;8.646;2023-01-29T13:51:13;101589.19;;;6.82;52.40
19736;BME280;32064;49.310;8.646;2023-01-29T13:53:43;101583.00;;;6.84;52.33
19736;BME280;32064;49.310;8.646;2023-01-29T13:58:57;101582.03;;;6.87;51.97
19736;BME280;32064;49.310;8.646;2023-01-29T14:04:30;101565.28;;;6.92;51.59
19736;BME280;32064;49.310;8.646;2023-01-29T14:06:57;101568.72;;;6.94;52.25
19736;BME280;32064;49.310;8.646;2023-01-29T14:12:02;101571.06;;;6.77;51.25
19736;BME280;32064;49.310;8.646;2023-01-29T14:17:13;101578.47;;;6.64;52.54
19736;BME280;32064;49.310;8.646;2023-01-29T14:19:49;101569.03;;;6.60;53.02
19736;BME280;32064;49.310;8.646;2023-01-29T14:22:23;101568.97;;;6.62;53.39
19736;BME280;32064;49.310;8.646;2023-01-29T14:25:02;101570.75;;;6.61;52.98
19736;BME280;32064;49.310;8.646;2023-01-29T14:27:29;101571.56;;;6.63;52.69
19736;BME280;32064;49.310;8.646;2023-01-29T14:30:00;101564.59;;;6.62;52.68
19736;BME280;32064;49.310;8.646;2023-01-29T14:32:27;101564.88;;;6.55;53.44
19736;BME280;32064;49.310;8.646;2023-01-29T14:35:01;101559.16;;;6.43;52.08
19736;BME280;32064;49.310;8.646;2023-01-29T14:37:32;101557.66;;;6.36;53.78
19736;BME280;32064;49.310;8.646;2023-01-29T14:40:22;101561.31;;;6.30;53.29
19736;BME280;32064;49.310;8.646;2023-01-29T14:43:02;101562.72;;;6.41;52.48
19736;BME280;32064;49.310;8.646;2023-01-29T14:45:40;101561.06;;;6.38;52.31
19736;BME280;32064;49.310;8.646;2023-01-29T14:55:43;101560.91;;;6.18;53.73
19736;BME280;32064;49.310;8.646;2023-01-29T14:58:37;101565.81;;;6.00;53.32